Latest Weather Observations for Strathalbyn

IDS60901

Issued at 5:31 pm CST Sunday 11 April 2021 (issued every 10 minutes, with the page automatically refreshed every 10 minutes)

About weather observations | Map of Adelaide area stations | Latest observations for Adelaide area | Other Formats
Station Details ID: 024580 Name: STRATHALBYN RACECOURSE Lat: -35.28 Lon: 138.89 Height: 58.0 m
Data from the previous 72 hours. | See also: Recent months at Strathalbyn
Date/Time
CST
Temp
°C
App
Temp
°C
Dew
Point
°C
Rel
Hum
%
Delta-T
°C
Wind Press
QNH
hPa
Press
MSL
hPa
Rain since
9am
mm
Dir  Spd
km/h
Gust
km/h
Spd
kts
Gust
kts
11/05:30pm 15.0 10.4 6.3 56 4.2 S 20 28 11 15 1023.9 1023.8 0.0
11/05:00pm 15.4 8.9 4.8 49 5.0 S 28 35 15 19 1024.0 1023.9 0.0
11/04:30pm 16.0 10.1 4.1 45 5.5 SSW 24 32 13 17 1023.8 1023.7 0.0
11/04:00pm 17.1 11.6 4.1 42 6.1 S 22 32 12 17 1023.6 1023.5 0.0
11/03:30pm 16.5 10.3 4.5 45 5.6 SSW 26 33 14 18 1023.8 1023.7 0.0
11/03:00pm 16.3 10.2 4.7 46 5.5 SSW 26 39 14 21 1024.0 1023.9 0.0
11/02:30pm 17.0 9.9 3.7 41 6.2 S 30 37 16 20 1023.7 1023.6 0.0
11/02:00pm 16.8 9.8 4.2 43 5.9 SSW 30 44 16 24 1023.5 1023.4 0.0
11/01:30pm 16.5 10.4 4.9 46 5.5 S 26 39 14 21 1023.4 1023.3 0.0
11/01:00pm 15.9 9.1 6.9 55 4.4 S 32 39 17 21 1023.7 1023.6 0.0
11/12:30pm 16.8 10.9 6.0 49 5.2 SSW 26 37 14 20 1023.8 1023.7 0.0
11/12:00pm 16.0 8.7 5.3 49 5.1 SSW 33 41 18 22 1023.9 1023.8 0.0
11/11:49am 16.1 8.8 4.5 46 5.5 SSW 32 46 17 25 1023.9 1023.8 0.0
11/11:30am 15.9 11.4 6.9 55 4.4 S 20 28 11 15 1024.2 1024.1 0.0
11/11:00am 15.6 7.8 4.9 49 5.1 S 35 52 19 28 1024.1 1024.0 0.0
11/10:51am 16.5 8.8 3.6 42 6.0 S 33 52 18 28 1023.8 1023.7 0.0
11/10:30am 16.3 9.1 3.0 41 6.0 SSW 30 41 16 22 1023.9 1023.8 0.0
11/10:00am 15.2 8.4 5.1 51 4.8 SSW 30 39 16 21 1024.0 1023.9 0.0
11/09:30am 15.5 9.1 3.0 43 5.6 SSW 26 33 14 18 1023.9 1023.8 0.0
11/09:00am 14.8 8.8 5.3 53 4.5 SSW 26 35 14 19 1023.7 1023.6 0.8
11/08:30am 14.2 8.6 7.3 63 3.4 SSW 26 35 14 19 1023.4 1023.3 0.8
11/08:00am 13.9 10.1 7.4 65 3.2 SW 17 20 9 11 1022.9 1022.8 0.8
11/07:30am 13.6 9.2 7.2 65 3.1 SSW 20 32 11 17 1022.5 1022.4 0.8
11/07:00am 13.4 8.4 6.5 63 3.3 SSW 22 32 12 17 1022.2 1022.1 0.8
11/06:30am 14.0 8.1 5.6 57 4.0 SSW 26 33 14 18 1021.7 1021.6 0.8
11/06:00am 13.7 8.9 5.6 58 3.8 SW 20 30 11 16 1021.3 1021.2 0.8
11/05:30am 13.5 8.8 6.1 61 3.5 SW 20 26 11 14 1021.1 1021.0 0.8
11/05:00am 13.3 7.9 6.2 62 3.4 S 24 32 13 17 1020.7 1020.6 0.8
11/04:30am 13.3 8.4 6.9 65 3.1 SSW 22 28 12 15 1020.3 1020.2 0.8
11/04:00am 12.2 7.7 8.7 79 1.7 SW 22 35 12 19 1020.2 1020.1 0.8
11/03:30am 12.7 9.3 7.8 72 2.4 SW 15 20 8 11 1020.1 1020.0 0.8
11/03:00am 13.2 8.4 7.4 68 2.8 SW 22 35 12 19 1020.0 1019.9 0.8
11/02:30am 12.8 9.6 6.8 67 2.9 SW 13 20 7 11 1019.8 1019.8 0.8
11/02:00am 12.5 9.3 8.4 76 2.0 WSW 15 20 8 11 1020.0 1019.9 0.8
11/01:30am 12.1 9.4 8.8 80 1.6 WSW 13 19 7 10 1020.0 1019.9 0.8
11/01:00am 12.3 7.1 8.8 79 1.8 SW 26 41 14 22 1019.8 1019.8 0.8
11/12:30am 13.3 9.5 5.9 61 3.5 SW 15 20 8 11 1019.7 1019.7 0.6
11/12:15am 13.7 7.4 5.6 58 3.8 SW 28 44 15 24 1019.6 1019.6 0.6
11/12:00am 13.8 9.2 3.6 50 4.6 SW 17 24 9 13 1019.7 1019.7 0.6
 
Date/Time
CST
Temp
°C
App
Temp
°C
Dew
Point
°C
Rel
Hum
%
Delta-T
°C
Wind Press
QNH
hPa
Press
MSL
hPa
Rain since
9am
mm
Dir  Spd
km/h
Gust
km/h
Spd
kts
Gust
kts
10/11:30pm 13.9 8.8 5.8 58 3.8 SW 22 32 12 17 1019.8 1019.8 0.6
10/11:00pm 13.4 9.2 5.8 60 3.6 SW 17 24 9 13 1020.0 1019.9 0.6
10/10:30pm 13.5 9.1 7.5 67 2.9 SW 20 28 11 15 1019.7 1019.7 0.6
10/10:00pm 13.3 8.1 9.0 75 2.2 SW 26 35 14 19 1019.5 1019.5 0.6
10/09:30pm 13.6 9.9 7.8 68 2.9 SW 17 26 9 14 1019.3 1019.3 0.6
10/09:00pm 13.4 10.4 7.8 69 2.8 W 13 20 7 11 1018.9 1018.9 0.6
10/08:30pm 13.1 10.1 7.8 70 2.6 WSW 13 17 7 9 1018.8 1018.8 0.6
10/08:00pm 13.4 9.2 8.3 71 2.5 WSW 20 32 11 17 1018.5 1018.5 0.6
10/07:30pm 14.8 10.3 6.9 59 3.9 SW 20 32 11 17 1018.3 1018.3 0.2
10/07:00pm 14.5 10.4 8.0 65 3.2 WSW 19 26 10 14 1017.9 1017.9 0.2
10/06:30pm 14.1 11.0 7.4 64 3.3 WSW 13 19 7 10 1017.6 1017.6 0.2
10/06:00pm 14.1 10.9 8.3 68 2.9 SW 15 20 8 11 1017.4 1017.4 0.2
10/05:30pm 14.3 9.2 9.3 72 2.6 SW 26 39 14 21 1017.2 1017.2 0.2
10/05:00pm 16.1 9.2 6.3 52 4.8 SW 32 41 17 22 1016.7 1016.7 0.2
10/04:30pm 17.2 10.4 5.2 45 5.8 SW 30 41 16 22 1016.6 1016.6 0.2
10/04:00pm 16.3 9.5 7.5 56 4.4 SSW 33 43 18 23 1016.5 1016.5 0.2
10/03:30pm 16.4 8.7 7.3 55 4.5 SSW 37 46 20 25 1016.4 1016.3 0.2
10/03:00pm 15.3 6.5 9.4 68 3.0 SSW 46 57 25 31 1016.2 1016.1 0.2
10/02:51pm 17.1 10.3 7.7 54 4.8 SW 33 56 18 30 1016.0 1015.9 0.2
10/02:30pm 18.4 10.6 4.9 41 6.5 SSW 35 44 19 24 1015.7 1015.6 0.2
10/02:11pm 17.9 10.6 5.5 44 6.0 SW 33 52 18 28 1015.8 1015.7 0.2
10/02:00pm 17.2 9.3 6.1 48 5.4 SSW 37 54 20 29 1015.6 1015.5 0.2
10/01:52pm 17.6 10.7 7.4 51 5.1 SW 33 54 18 29 1015.5 1015.4 0.2
10/01:30pm 17.2 10.4 7.0 51 5.1 SSW 32 44 17 24 1015.7 1015.6 0.2
10/01:18pm 17.1 9.9 7.7 54 4.8 SSW 35 54 19 29 1015.8 1015.7 0.2
10/01:00pm 17.4 10.6 7.5 52 5.0 SSW 33 46 18 25 1015.7 1015.6 0.2
10/12:30pm 18.2 10.7 7.9 51 5.3 SSW 37 48 20 26 1015.8 1015.7 0.2
10/12:00pm 18.7 11.2 8.1 50 5.5 SSW 37 50 20 27 1015.6 1015.5 0.2
10/11:30am 17.2 10.3 8.9 58 4.3 SW 35 44 19 24 1015.7 1015.6 0.2
10/11:00am 17.3 12.4 11.3 68 3.3 SW 28 41 15 22 1015.6 1015.5 0.2
10/10:30am 15.4 12.5 12.2 81 1.7 SW 19 28 10 15 1015.8 1015.7 0.2
10/10:00am 14.6 11.2 11.2 80 1.8 WSW 20 28 11 15 1015.8 1015.7 0.2
10/09:30am 17.9 12.1 9.5 58 4.4 SSW 30 39 16 21 1015.2 1015.1 0.0
10/09:00am 17.2 12.7 8.6 57 4.4 SW 22 33 12 18 1015.1 1015.0 0.2
10/08:30am 15.5 13.7 10.7 73 2.5 WSW 11 22 6 12 1015.0 1014.9 0.2
10/08:00am 14.1 9.7 10.3 78 2.0 WSW 24 41 13 22 1015.0 1014.9 0.0
10/07:30am 14.6 10.8 9.8 73 2.5 W 20 28 11 15 1014.2 1014.1 0.0
10/07:00am 13.8 10.6 10.0 78 2.0 WSW 17 28 9 15 1014.1 1014.0 0.0
10/06:30am 13.9 11.2 9.1 73 2.4 W 13 19 7 10 1013.7 1013.6 0.0
10/06:00am 14.4 10.0 9.0 70 2.8 W 22 32 12 17 1013.4 1013.3 0.0
10/05:30am 14.2 10.2 9.2 72 2.6 W 20 28 11 15 1013.3 1013.2 0.0
10/05:00am 13.8 9.9 8.8 72 2.5 W 19 26 10 14 1012.8 1012.7 0.0
10/04:30am 13.8 10.1 9.3 74 2.3 W 19 26 10 14 1012.9 1012.8 0.0
10/04:00am 14.1 10.2 8.7 70 2.7 W 19 24 10 13 1013.0 1012.9 0.0
10/03:30am 13.9 10.5 9.1 73 2.4 W 17 22 9 12 1012.9 1012.8 0.0
10/03:00am 14.2 10.8 9.0 71 2.6 WSW 17 26 9 14 1013.3 1013.2 0.0
10/02:30am 14.1 10.0 8.5 69 2.8 W 20 26 11 14 1013.1 1013.0 0.0
10/02:00am 14.5 10.0 8.7 68 2.9 W 22 32 12 17 1013.2 1013.1 0.0
10/01:30am 14.2 10.8 7.5 64 3.3 W 15 20 8 11 1013.3 1013.2 0.0
10/01:00am 14.3 10.5 7.6 64 3.3 W 17 22 9 12 1013.1 1013.0 0.0
10/12:30am 14.3 10.1 7.6 64 3.3 W 19 26 10 14 1013.4 1013.3 0.0
10/12:00am 15.0 10.8 7.5 61 3.7 W 19 28 10 15 1013.5 1013.4 0.0
 
Date/Time
CST
Temp
°C
App
Temp
°C
Dew
Point
°C
Rel
Hum
%
Delta-T
°C
Wind Press
QNH
hPa
Press
MSL
hPa
Rain since
9am
mm
Dir  Spd
km/h
Gust
km/h
Spd
kts
Gust
kts
09/11:30pm 15.0 11.3 7.8 62 3.6 WSW 17 24 9 13 1013.8 1013.7 0.0
09/11:00pm 14.3 12.2 8.3 67 3.0 WSW 9 15 5 8 1013.9 1013.8 0.0
09/10:30pm 14.4 12.0 8.6 68 2.9 W 11 15 6 8 1014.0 1013.9 0.0
09/10:00pm 14.5 11.4 8.9 69 2.9 SW 15 20 8 11 1014.5 1014.4 0.0
09/09:30pm 14.7 11.9 8.4 66 3.2 WSW 13 19 7 10 1014.4 1014.3 0.0
09/09:00pm 14.5 11.6 8.2 66 3.2 WSW 13 20 7 11 1014.3 1014.2 0.0
09/08:30pm 13.9 11.6 7.4 65 3.2 WSW 9 15 5 8 1013.9 1013.8 0.0
09/08:00pm 14.9 12.7 7.7 62 3.6 WSW 9 13 5 7 1013.8 1013.7 0.0
09/07:30pm 14.6 12.3 7.6 63 3.5 W 9 13 5 7 1013.7 1013.6 0.0
09/07:00pm 14.1 11.3 6.9 62 3.5 WSW 11 15 6 8 1013.4 1013.3 0.0
09/06:30pm 15.4 12.1 7.9 61 3.8 SW 15 20 8 11 1013.1 1013.0 0.0
09/06:00pm 15.7 11.8 7.0 56 4.3 SSW 17 20 9 11 1012.8 1012.7 0.0
09/05:30pm 16.8 11.8 6.3 50 5.2 SW 22 32 12 17 1012.7 1012.6 0.0
09/05:00pm 16.9 11.6 6.7 51 5.0 SSW 24 30 13 16 1012.6 1012.5 0.0
09/04:30pm 17.8 12.7 7.5 51 5.2 SSW 24 35 13 19 1012.5 1012.4 0.0
09/04:00pm 17.9 12.9 6.4 47 5.7 SSW 22 30 12 16 1012.4 1012.3 0.0
09/03:30pm 18.0 13.0 6.5 47 5.7 SSW 22 32 12 17 1012.5 1012.4 0.0
09/03:00pm 19.4 14.1 8.4 49 5.7 SSW 26 33 14 18 1012.5 1012.4 0.0
09/02:30pm 19.0 15.1 7.1 46 6.0 SW 17 28 9 15 1012.7 1012.6 0.0
09/02:00pm 18.8 13.4 6.3 44 6.2 SSW 24 33 13 18 1013.0 1012.9 0.0
09/01:30pm 18.8 13.7 6.0 43 6.3 SSW 22 35 12 19 1013.3 1013.2 0.0
09/01:00pm 19.6 14.9 6.0 41 6.8 SSW 20 35 11 19 1013.2 1013.1 0.0
09/12:30pm 18.6 12.8 6.1 44 6.2 SSW 26 35 14 19 1013.3 1013.2 0.0
09/12:00pm 18.7 13.8 6.9 46 5.9 S 22 30 12 16 1013.8 1013.7 0.0
09/11:30am 18.4 13.5 5.3 42 6.4 S 20 33 11 18 1014.0 1013.9 0.0
09/11:00am 17.9 13.4 6.1 46 5.8 S 19 26 10 14 1014.3 1014.2 0.0
09/10:30am 17.3 12.3 6.5 49 5.3 S 22 28 12 15 1014.6 1014.5 0.0
09/10:00am 17.4 12.3 7.7 53 4.9 S 24 32 13 17 1014.3 1014.2 0.0
09/09:30am 17.4 13.2 8.3 55 4.7 SSE 20 26 11 14 1014.7 1014.6 0.0
09/09:00am 16.8 12.4 7.4 54 4.7 S 20 24 11 13 1014.5 1014.4 1.0
09/08:30am 16.0 11.9 8.5 61 3.8 S 20 30 11 16 1014.2 1014.1 1.0
09/08:00am 15.5 12.8 10.3 71 2.7 SSW 15 19 8 10 1013.7 1013.6 1.0
09/07:30am 14.1 11.6 9.7 75 2.3 WSW 13 19 7 10 1013.8 1013.7 1.0
09/07:00am 13.9 12.3 10.1 78 2.0 SW 9 15 5 8 1013.1 1013.0 1.0
09/06:30am 13.9 12.4 10.5 80 1.8 SW 9 11 5 6 1012.6 1012.5 1.0
09/06:00am 14.0 12.4 10.2 78 2.0 SW 9 13 5 7 1012.4 1012.3 1.0
09/05:30am 14.8 12.7 11.2 79 1.9 SSW 13 17 7 9 1011.8 1011.7 1.0
09/05:00am 15.1 13.5 11.7 80 1.8 SSW 11 15 6 8 1011.6 1011.5 1.0
09/04:30am 15.3 13.4 11.9 80 1.8 SW 13 17 7 9 1011.6 1011.5 1.0
09/04:00am 15.2 12.5 11.8 80 1.8 SSW 17 28 9 15 1011.6 1011.5 1.0
09/03:30am 15.3 12.8 12.2 82 1.7 SSW 17 22 9 12 1011.8 1011.7 1.0
09/03:13am 15.5 10.9 12.3 81 1.8 SSW 28 43 15 23 1011.6 1011.5 1.0
09/03:00am 15.8 13.4 12.7 82 1.7 SSW 17 20 9 11 1011.4 1011.3 1.0
09/02:30am 15.8 12.2 12.9 83 1.6 SSW 24 37 13 20 1011.2 1011.1 1.0
09/02:00am 15.7 13.6 15.1 96 0.3 SSW 20 26 11 14 1011.1 1011.0 1.0
09/01:30am 15.9 14.7 15.1 95 0.5 SW 15 20 8 11 1011.4 1011.3 1.0
09/01:00am 16.2 13.1 15.6 96 0.4 SSW 26 35 14 19 1011.5 1011.4 0.8
09/12:30am 17.0 14.1 16.0 94 0.6 SSW 26 37 14 20 1010.8 1010.7 0.6
09/12:00am 17.5 14.6 15.1 86 1.4 SSW 24 32 13 17 1010.6 1010.5 0.6
 
Date/Time
CST
Temp
°C
App
Temp
°C
Dew
Point
°C
Rel
Hum
%
Delta-T
°C
Wind Press
QNH
hPa
Press
MSL
hPa
Rain since
9am
mm
Dir  Spd
km/h
Gust
km/h
Spd
kts
Gust
kts
08/11:30pm 18.0 18.0 17.2 95 0.5 SW 13 17 7 9 1010.6 1010.5 0.6
08/11:00pm 18.2 17.9 16.5 90 1.0 SW 13 17 7 9 1010.4 1010.3 0.2
08/10:30pm 18.5 16.3 15.9 85 1.5 SW 22 30 12 16 1010.6 1010.5 0.0
08/10:00pm 18.7 17.7 15.6 82 1.8 SW 15 20 8 11 1010.4 1010.3 0.0
08/09:30pm 18.9 18.3 14.6 76 2.5 SSW 11 20 6 11 1009.5 1009.4 0.0
08/09:00pm 18.8 19.0 14.1 74 2.7 SW 6 9 3 5 1009.3 1009.2 0.0
08/08:30pm 18.5 18.4 14.0 75 2.6 WSW 7 11 4 6 1009.1 1009.0 0.0
08/08:00pm 17.9 17.9 13.6 76 2.4 NNW 6 11 3 6 1008.4 1008.3 0.0
08/07:30pm 18.8 18.8 14.3 75 2.6 SW 7 11 4 6 1008.7 1008.6 0.0
08/07:00pm 19.1 17.7 14.4 74 2.7 SW 15 17 8 9 1008.7 1008.6 0.0
08/06:30pm 19.7 17.9 14.5 72 3.0 SW 17 24 9 13 1008.6 1008.5 0.0
08/06:00pm 20.4 17.0 13.8 66 3.8 SSW 24 33 13 18 1008.3 1008.2 0.0

Latest Capital City Observations: Canberra | Sydney | Melbourne | Brisbane | Adelaide | Perth | Hobart | Darwin

Other formats

Comma delimited format used in spreadsheet applications
http://www.bom.gov.au/fwo/IDS60901/IDS60901.94814.axf

JavaScript Object Notation format (JSON) in row-major order
http://www.bom.gov.au/fwo/IDS60901/IDS60901.94814.json

Data quality

Most of these data are generated automatically and are frequently updated. Quality checks on data are not normally performed. It is possible for incorrect values to appear. Refer to information at About Latest Weather Observations and please check the disclaimer before using these data.